Time;durP1;ratioP1;P1;durP2;ratioP2;P2;SDS_P1;SDS_P2;PMS_P1;PMS_P2;Temp;Humidity;BMP_temperature;BMP_pressure;BME280_temperature;BME280_humidity;BME280_pressure;Samples;Min_cycle;Max_cycle;Signal;HPM_P1;HPM_P2
2023/08/29 00:01:18;;;;;;;4.68;1.92;;;;;;;17.51;72.21;99275.03;4923629;28;20050;-85
2023/08/29 00:03:45;;;;;;;4.03;1.70;;;;;;;17.51;72.24;99286.59;4922140;28;20051;-85
2023/08/29 00:06:12;;;;;;;3.47;1.80;;;;;;;17.50;71.91;99292.13;4939642;28;20570;-85
2023/08/29 00:08:39;;;;;;;5.20;2.28;;;;;;;17.49;72.92;99287.81;4902835;29;20047;-85
2023/08/29 00:11:06;;;;;;;5.78;2.10;;;;;;;17.50;72.73;99293.00;4912901;29;20123;-85
2023/08/29 00:13:33;;;;;;;3.58;2.15;;;;;;;17.49;72.63;99279.75;4926572;28;20050;-86
2023/08/29 00:16:00;;;;;;;5.78;1.98;;;;;;;17.50;72.50;99287.63;4918610;28;20095;-85
2023/08/29 00:18:27;;;;;;;6.30;2.15;;;;;;;17.52;72.90;99285.56;4933285;28;20126;-85
2023/08/29 00:20:54;;;;;;;5.32;2.72;;;;;;;17.52;72.77;99285.56;4926163;28;20075;-85
2023/08/29 00:23:21;;;;;;;2.55;1.80;;;;;;;17.52;73.01;99295.47;4910665;28;20043;-84
2023/08/29 00:25:50;;;;;;;3.70;2.03;;;;;;;17.52;73.29;99298.16;4927637;28;20039;-85
2023/08/29 00:28:17;;;;;;;4.18;2.17;;;;;;;17.51;73.22;99309.94;4914361;28;20055;-85
2023/08/29 00:30:44;;;;;;;4.15;2.05;;;;;;;17.50;73.22;99319.84;4922730;28;20920;-85
2023/08/29 00:33:11;;;;;;;2.90;1.90;;;;;;;17.50;73.38;99321.66;4920409;28;20054;-85
2023/08/29 00:35:39;;;;;;;5.20;2.00;;;;;;;17.51;73.54;99317.97;4922711;29;20099;-85
2023/08/29 00:38:06;;;;;;;3.60;2.30;;;;;;;17.51;73.65;99315.28;4951791;28;20503;-85
2023/08/29 00:40:35;;;;;;;4.60;1.95;;;;;;;17.51;73.05;99317.97;4944532;28;20054;-85
2023/08/29 00:43:02;;;;;;;2.00;1.90;;;;;;;17.53;73.37;99316.75;4923006;28;20047;-85
2023/08/29 00:45:35;;;;;;;3.00;2.03;;;;;;;17.50;73.23;99322.53;4924058;28;20052;-85
2023/08/29 00:48:02;;;;;;;2.33;2.15;;;;;;;17.52;73.40;99325.00;4937643;28;20111;-85
2023/08/29 00:50:30;;;;;;;5.10;2.22;;;;;;;17.52;73.18;99323.13;4922830;28;20050;-85
2023/08/29 00:53:00;;;;;;;2.45;1.80;;;;;;;17.52;73.04;99322.31;4940504;28;20118;-84
2023/08/29 00:55:28;;;;;;;3.33;1.73;;;;;;;17.51;73.28;99321.50;4935299;28;20052;-84
2023/08/29 00:57:59;;;;;;;3.53;2.33;;;;;;;17.51;73.57;99328.72;4921975;28;20510;-84
2023/08/29 01:00:28;;;;;;;1.80;1.70;;;;;;;17.49;73.28;99322.69;4936646;28;20055;-84
2023/08/29 01:02:55;;;;;;;3.15;2.08;;;;;;;17.49;73.33;99317.34;4927680;28;20487;-84
2023/08/29 01:05:22;;;;;;;2.80;2.10;;;;;;;17.49;73.52;99320.03;4934220;28;20051;-84
2023/08/29 01:07:53;;;;;;;4.05;1.92;;;;;;;17.47;73.60;99317.50;4935032;28;20079;-84
2023/08/29 01:10:24;;;;;;;4.30;2.67;;;;;;;17.47;73.66;99317.50;4924928;28;20395;-85
2023/08/29 01:13:07;;;;;;;4.20;1.92;;;;;;;17.45;73.97;99316.03;4899010;28;20050;-85
2023/08/29 01:15:34;;;;;;;4.03;2.40;;;;;;;17.46;73.94;99307.00;4929398;28;20052;-85
2023/08/29 01:18:03;;;;;;;3.95;1.95;;;;;;;17.44;74.18;99304.50;4935441;28;20059;-85
2023/08/29 01:20:31;;;;;;;2.67;2.22;;;;;;;17.45;74.07;99308.00;4933780;28;20043;-84
2023/08/29 01:23:26;;;;;;;1.92;1.73;;;;;;;17.36;74.63;99301.94;4925114;28;20107;-85
2023/08/29 01:26:12;;;;;;;3.10;2.00;;;;;;;17.33;74.42;99305.03;4927669;28;20047;-85
2023/08/29 01:28:42;;;;;;;2.53;2.05;;;;;;;17.39;73.74;99296.19;4922338;28;20487;-85
2023/08/29 01:31:10;;;;;;;3.85;1.92;;;;;;;17.41;74.29;99301.38;4931095;28;20051;-85
2023/08/29 01:33:38;;;;;;;4.20;2.13;;;;;;;17.42;74.70;99305.69;4933496;28;20112;-85
2023/08/29 01:36:06;;;;;;;2.65;1.85;;;;;;;17.40;74.69;99300.50;4921580;28;20419;-85
2023/08/29 01:38:33;;;;;;;3.45;2.03;;;;;;;17.42;74.35;99295.78;4928715;28;20042;-84
2023/08/29 01:41:00;;;;;;;6.10;2.10;;;;;;;17.40;74.46;99289.78;4926571;28;20047;-85
2023/08/29 01:43:27;;;;;;;4.30;2.03;;;;;;;17.41;74.29;99287.94;4937157;28;20563;-85
2023/08/29 01:45:56;;;;;;;2.25;2.05;;;;;;;17.40;74.04;99291.63;4942341;28;20154;-85
2023/08/29 01:48:24;;;;;;;2.22;2.00;;;;;;;17.39;74.23;99300.72;4942407;28;20130;-85
2023/08/29 01:50:52;;;;;;;2.88;2.03;;;;;;;17.36;74.26;99294.72;4937546;28;20051;-85
2023/08/29 01:53:19;;;;;;;3.20;2.13;;;;;;;17.36;74.20;99289.34;4924851;28;20051;-85
2023/08/29 01:55:47;;;;;;;4.57;2.20;;;;;;;17.38;74.30;99280.25;4934484;28;20380;-85
2023/08/29 01:58:16;;;;;;;3.20;1.90;;;;;;;17.36;74.15;99281.31;4940284;28;20491;-85
2023/08/29 02:00:43;;;;;;;3.13;2.20;;;;;;;17.36;74.35;99275.09;4908534;29;20063;-85
2023/08/29 02:03:10;;;;;;;4.53;2.13;;;;;;;17.37;74.24;99266.03;4935673;28;20039;-85
2023/08/29 02:05:36;;;;;;;6.05;1.88;;;;;;;17.35;74.36;99266.22;4888966;28;20076;-85
2023/08/29 02:08:03;;;;;;;2.13;2.03;;;;;;;17.35;74.33;99268.06;4923250;28;20145;-85
2023/08/29 02:10:32;;;;;;;3.10;1.67;;;;;;;17.30;74.57;99265.97;4922041;28;20056;-85
2023/08/29 02:12:59;;;;;;;4.78;2.10;;;;;;;17.31;74.47;99264.94;4924158;28;20059;-85
2023/08/29 02:15:26;;;;;;;3.00;2.10;;;;;;;17.29;74.56;99269.66;4927509;28;20074;-86
2023/08/29 02:17:53;;;;;;;2.67;1.83;;;;;;;17.30;74.60;99268.66;4923801;29;20075;-85
2023/08/29 02:20:20;;;;;;;5.78;2.22;;;;;;;17.32;74.42;99268.44;4936812;28;20502;-85
2023/08/29 02:22:47;;;;;;;2.95;2.05;;;;;;;17.30;74.55;99265.97;4924052;28;20067;-85
2023/08/29 02:25:14;;;;;;;2.63;2.10;;;;;;;17.29;74.70;99258.94;4938971;28;20078;-85
2023/08/29 02:27:41;;;;;;;3.00;2.30;;;;;;;17.28;74.78;99262.66;4935001;28;20376;-85
2023/08/29 02:30:08;;;;;;;4.57;1.92;;;;;;;17.28;75.01;99257.28;4922345;28;20050;-85
2023/08/29 02:32:35;;;;;;;4.10;2.03;;;;;;;17.29;75.10;99250.88;4945863;28;20043;-85
2023/08/29 02:35:03;;;;;;;3.38;2.15;;;;;;;17.29;75.12;99252.75;4890540;28;20068;-85
2023/08/29 02:37:32;;;;;;;2.60;2.20;;;;;;;17.29;75.19;99247.38;4925547;28;20047;-86
2023/08/29 02:39:59;;;;;;;3.38;2.03;;;;;;;17.27;75.23;99242.19;4921827;28;20068;-85
2023/08/29 02:42:27;;;;;;;2.08;1.98;;;;;;;17.28;75.03;99251.09;4913003;28;20044;-86
2023/08/29 02:44:54;;;;;;;3.05;2.10;;;;;;;17.27;75.08;99246.75;4938585;28;20055;-85
2023/08/29 02:47:21;;;;;;;2.42;1.90;;;;;;;17.25;75.14;99241.59;4927919;28;20126;-85
2023/08/29 02:49:48;;;;;;;3.97;2.03;;;;;;;17.26;75.25;99248.59;4943164;28;20063;-85
2023/08/29 02:52:14;;;;;;;2.47;2.28;;;;;;;17.27;75.21;99252.09;4906162;28;20047;-85
2023/08/29 02:54:41;;;;;;;2.55;2.08;;;;;;;17.24;75.31;99239.91;4925318;29;20103;-85
2023/08/29 02:57:08;;;;;;;2.22;2.10;;;;;;;17.24;75.33;99244.44;4907304;28;20051;-85
2023/08/29 02:59:35;;;;;;;5.47;2.20;;;;;;;17.24;75.61;99247.13;4936939;28;20497;-86
2023/08/29 03:02:03;;;;;;;4.28;2.20;;;;;;;17.23;75.57;99248.16;4920660;29;20446;-85
2023/08/29 03:04:30;;;;;;;3.88;2.00;;;;;;;17.23;75.50;99248.16;4925399;28;20531;-85
2023/08/29 03:06:57;;;;;;;3.63;2.47;;;;;;;17.21;75.59;99245.66;4924975;28;20148;-85
2023/08/29 03:09:24;;;;;;;3.92;2.00;;;;;;;17.22;75.36;99233.91;4943349;28;20123;-85
2023/08/29 03:11:51;;;;;;;4.93;2.25;;;;;;;17.20;75.33;99235.97;4941193;28;20515;-86
2023/08/29 03:14:19;;;;;;;2.00;1.90;;;;;;;17.20;75.07;99227.91;4937452;28;20075;-85
2023/08/29 03:16:46;;;;;;;4.28;2.10;;;;;;;17.20;75.54;99235.09;4894105;28;20052;-85
2023/08/29 03:19:15;;;;;;;3.63;1.95;;;;;;;17.17;75.23;99230.97;4925660;28;20099;-85
2023/08/29 03:21:42;;;;;;;2.30;2.10;;;;;;;17.19;75.17;99228.91;4924205;29;20050;-85
2023/08/29 03:24:09;;;;;;;3.90;2.00;;;;;;;17.18;75.20;99229.97;4927243;28;20500;-85
2023/08/29 03:26:36;;;;;;;2.50;2.30;;;;;;;17.16;75.51;99232.00;4941345;28;20122;-85
2023/08/29 03:29:03;;;;;;;3.90;2.63;;;;;;;17.18;75.67;99234.50;4927845;28;20510;-86
2023/08/29 03:31:30;;;;;;;3.75;1.95;;;;;;;17.14;75.32;99224.13;4910870;28;20530;-85
2023/08/29 03:34:00;;;;;;;3.65;1.90;;;;;;;17.16;75.03;99213.22;4941516;28;20051;-86
2023/08/29 03:36:27;;;;;;;7.45;2.45;;;;;;;17.17;75.02;99206.00;4943019;28;20047;-86
2023/08/29 03:38:54;;;;;;;4.53;2.10;;;;;;;17.16;75.05;99213.22;4913020;29;20048;-85
2023/08/29 03:41:22;;;;;;;2.85;2.10;;;;;;;17.18;74.85;99213.03;4953672;28;20055;-85
2023/08/29 03:43:49;;;;;;;2.03;1.90;;;;;;;17.16;74.79;99210.53;4913821;28;20051;-85
2023/08/29 03:46:16;;;;;;;2.70;2.25;;;;;;;17.17;75.01;99220.22;4924579;28;20467;-85
2023/08/29 03:48:43;;;;;;;2.40;2.20;;;;;;;17.15;74.90;99211.56;4897255;28;20051;-85
2023/08/29 03:51:10;;;;;;;3.15;2.13;;;;;;;17.17;75.00;99208.69;4907062;28;20074;-85
2023/08/29 03:53:38;;;;;;;4.30;2.35;;;;;;;17.18;75.18;99215.72;4913669;28;20051;-85
2023/08/29 03:56:08;;;;;;;4.10;2.03;;;;;;;17.14;75.14;99213.41;4893828;28;20059;-86
2023/08/29 03:58:35;;;;;;;5.10;2.42;;;;;;;17.15;75.42;99216.94;4895228;29;20391;-84
2023/08/29 04:01:03;;;;;;;4.97;2.30;;;;;;;17.14;75.37;99212.56;4910027;28;20130;-85
2023/08/29 04:03:31;;;;;;;3.30;1.80;;;;;;;17.14;75.13;99217.94;4947681;28;20050;-86
2023/08/29 04:05:58;;;;;;;5.07;2.08;;;;;;;17.13;75.11;99217.13;4887754;28;20085;-85
2023/08/29 04:08:25;;;;;;;5.68;1.95;;;;;;;17.13;75.14;99216.28;4895792;28;20043;-85
2023/08/29 04:10:51;;;;;;;3.67;2.10;;;;;;;17.11;75.21;99218.34;4936847;28;20047;-85
2023/08/29 04:13:18;;;;;;;6.80;2.20;;;;;;;17.11;75.18;99216.47;4935910;28;20055;-85
2023/08/29 04:15:47;;;;;;;3.03;2.05;;;;;;;17.12;75.13;99215.47;4915443;28;20043;-88
2023/08/29 04:18:15;;;;;;;1.98;1.85;;;;;;;17.12;75.20;99212.78;4941762;28;20134;-89
2023/08/29 04:20:45;;;;;;;2.30;2.03;;;;;;;17.11;75.05;99211.09;4898478;28;20099;-88
2023/08/29 04:23:12;;;;;;;4.90;2.17;;;;;;;17.11;75.31;99207.59;4924031;28;20138;-87
2023/08/29 04:25:39;;;;;;;2.85;2.10;;;;;;;17.09;75.11;99215.84;4953714;28;20070;-88
2023/08/29 04:28:06;;;;;;;1.88;1.70;;;;;;;17.10;74.70;99216.69;4937516;28;20043;-88
2023/08/29 04:30:35;;;;;;;2.22;2.03;;;;;;;17.10;74.98;99214.81;4910322;28;20051;-88
2023/08/29 04:33:03;;;;;;;2.97;2.10;;;;;;;17.09;75.19;99217.69;4935502;28;20043;-88
2023/08/29 04:35:30;;;;;;;5.47;2.38;;;;;;;17.08;75.21;99213.34;4947591;28;20067;-89
2023/08/29 04:37:56;;;;;;;5.13;1.88;;;;;;;17.09;75.12;99212.31;4914316;28;20859;-89
2023/08/29 04:40:23;;;;;;;3.10;2.05;;;;;;;17.07;75.20;99211.69;4939213;28;20384;-89
2023/08/29 04:42:51;;;;;;;2.92;1.83;;;;;;;17.06;75.23;99224.28;4910678;28;20412;-88
2023/08/29 04:45:19;;;;;;;4.95;2.22;;;;;;;17.06;75.27;99224.28;4924267;28;20055;-88
2023/08/29 04:47:46;;;;;;;3.17;2.20;;;;;;;17.07;75.27;99219.72;4927951;28;20471;-85
2023/08/29 04:50:14;;;;;;;3.72;2.10;;;;;;;17.06;75.45;99213.53;4939038;28;20044;-88
2023/08/29 04:52:42;;;;;;;4.22;2.20;;;;;;;17.06;75.11;99210.84;4879342;28;20091;-89
2023/08/29 04:55:09;;;;;;;3.22;1.90;;;;;;;17.06;74.99;99220.75;4903400;28;20054;-89
2023/08/29 04:57:36;;;;;;;2.67;1.90;;;;;;;17.07;75.13;99215.22;4916282;28;20114;-89
2023/08/29 05:00:05;;;;;;;2.58;2.03;;;;;;;17.06;75.33;99213.53;4894063;28;20071;-89
2023/08/29 05:02:33;;;;;;;3.97;2.15;;;;;;;17.06;75.20;99215.41;4909199;28;20053;-88
2023/08/29 05:04:59;;;;;;;2.70;2.00;;;;;;;17.06;75.42;99213.53;4907251;28;22796;-86
2023/08/29 05:07:26;;;;;;;3.63;1.80;;;;;;;17.08;75.37;99210.69;4934620;28;20123;-88
2023/08/29 05:09:55;;;;;;;2.40;1.80;;;;;;;17.07;75.40;99217.03;4947928;28;20127;-88
2023/08/29 05:12:22;;;;;;;4.53;2.15;;;;;;;17.06;75.57;99215.41;4917529;28;20411;-88
2023/08/29 05:14:50;;;;;;;3.67;2.00;;;;;;;17.07;75.88;99219.72;4923889;28;20051;-88
2023/08/29 05:17:17;;;;;;;2.35;2.10;;;;;;;17.07;75.96;99206.31;4920142;28;20071;-87
2023/08/29 05:19:44;;;;;;;1.77;1.67;;;;;;;17.07;76.05;99206.31;4908969;29;20692;-89
2023/08/29 05:22:11;;;;;;;4.68;2.15;;;;;;;17.08;75.97;99211.50;4878610;28;20040;-88
2023/08/29 05:24:38;;;;;;;7.00;2.53;;;;;;;17.08;76.10;99200.78;4923192;28;20055;-89
2023/08/29 05:27:05;;;;;;;6.63;2.40;;;;;;;17.10;76.34;99217.50;4910391;28;20596;-88
2023/08/29 05:29:32;;;;;;;2.75;2.05;;;;;;;17.11;76.32;99216.47;4905046;28;20043;-89
2023/08/29 05:31:59;;;;;;;5.50;2.08;;;;;;;17.11;76.50;99212.97;4919607;28;20122;-88
2023/08/29 05:34:26;;;;;;;3.30;2.08;;;;;;;17.12;76.17;99214.63;4910026;28;20059;-86
2023/08/29 05:36:52;;;;;;;2.30;2.10;;;;;;;17.12;75.54;99212.78;4936929;28;20130;-88
2023/08/29 05:39:19;;;;;;;2.30;2.05;;;;;;;17.14;75.45;99215.25;4923202;28;20055;-87
2023/08/29 05:41:46;;;;;;;3.85;2.00;;;;;;;17.14;75.69;99212.56;4924719;28;20403;-86
2023/08/29 05:44:13;;;;;;;2.58;1.77;;;;;;;17.14;75.35;99213.41;4903188;28;20044;-88
2023/08/29 05:46:40;;;;;;;3.58;2.20;;;;;;;17.16;75.17;99209.72;4909008;28;20047;-88
2023/08/29 05:49:07;;;;;;;2.35;1.95;;;;;;;17.18;75.58;99218.41;4926251;28;20140;-88
2023/08/29 05:51:34;;;;;;;4.30;2.00;;;;;;;17.20;75.66;99216.34;4918075;28;20507;-89
2023/08/29 05:54:01;;;;;;;4.28;2.50;;;;;;;17.19;75.36;99220.06;4916801;29;20475;-87
2023/08/29 05:56:28;;;;;;;3.00;2.33;;;;;;;17.22;75.12;99216.97;4924088;28;20051;-88
2023/08/29 05:58:55;;;;;;;3.83;2.38;;;;;;;17.24;75.44;99222.97;4892993;29;20465;-88
2023/08/29 06:01:22;;;;;;;2.53;2.22;;;;;;;17.24;75.26;99214.94;4927569;28;20055;-88
2023/08/29 06:03:49;;;;;;;4.85;2.10;;;;;;;17.26;75.30;99212.88;4903959;29;20115;-88
2023/08/29 06:06:16;;;;;;;4.70;2.33;;;;;;;17.27;75.27;99217.22;4890973;28;20047;-87
2023/08/29 06:08:43;;;;;;;3.50;2.63;;;;;;;17.27;74.82;99215.34;4950706;28;20058;-88
2023/08/29 06:11:10;;;;;;;3.83;2.47;;;;;;;17.29;74.81;99215.19;4945815;28;20051;-88
2023/08/29 06:13:36;;;;;;;3.03;2.50;;;;;;;17.31;74.84;99219.31;4940362;28;20518;-88
2023/08/29 06:16:04;;;;;;;3.58;2.22;;;;;;;17.33;74.89;99221.84;4928609;28;20058;-87
2023/08/29 06:18:33;;;;;;;5.07;2.00;;;;;;;17.34;74.99;99226.16;4930206;28;20099;-88
2023/08/29 06:21:00;;;;;;;3.13;2.15;;;;;;;17.36;74.33;99216.06;4923656;28;20054;-88
2023/08/29 06:23:28;;;;;;;7.85;2.10;;;;;;;17.38;73.92;99226.59;4925186;28;20079;-88
2023/08/29 06:25:54;;;;;;;2.60;1.65;;;;;;;17.38;73.26;99231.94;4913963;28;20051;-88
2023/08/29 06:28:21;;;;;;;5.72;2.25;;;;;;;17.39;73.16;99225.59;4930140;28;20661;-88
2023/08/29 06:30:48;;;;;;;3.85;1.80;;;;;;;17.40;72.57;99230.75;4923866;28;20050;-88
2023/08/29 06:33:15;;;;;;;2.03;1.80;;;;;;;17.43;72.72;99238.44;4936933;28;20122;-87
2023/08/29 06:35:42;;;;;;;5.05;2.10;;;;;;;17.45;72.14;99233.66;4922510;28;20126;-89
2023/08/29 06:38:09;;;;;;;2.22;1.85;;;;;;;17.45;72.39;99233.66;4929463;28;20503;-88
2023/08/29 06:40:36;;;;;;;3.78;1.95;;;;;;;17.47;71.81;99234.31;4923834;28;20416;-88
2023/08/29 06:43:03;;;;;;;1.77;1.55;;;;;;;17.48;71.76;99232.47;4943720;28;20070;-88
2023/08/29 06:45:30;;;;;;;3.00;1.83;;;;;;;17.49;71.47;99240.31;4914403;28;20047;-88
2023/08/29 06:47:56;;;;;;;2.20;1.80;;;;;;;17.52;71.67;99247.16;4927711;28;20071;-87
2023/08/29 06:50:23;;;;;;;2.50;2.10;;;;;;;17.54;71.98;99240.56;4936643;28;20103;-88
2023/08/29 06:52:50;;;;;;;3.58;2.00;;;;;;;17.56;71.98;99245.75;4908389;28;20067;-87
2023/08/29 06:55:17;;;;;;;3.35;1.88;;;;;;;17.58;72.09;99254.44;4952414;28;20044;-89
2023/08/29 06:57:44;;;;;;;3.92;1.60;;;;;;;17.60;71.91;99249.69;4922710;29;20047;-88
2023/08/29 07:00:12;;;;;;;3.33;1.63;;;;;;;17.63;72.48;99257.38;4899428;28;20043;-88
2023/08/29 07:02:39;;;;;;;4.22;1.50;;;;;;;17.65;72.59;99257.16;4937473;28;20039;-88
2023/08/29 07:05:07;;;;;;;4.28;1.88;;;;;;;17.66;72.49;99261.53;4913243;28;20073;-88
2023/08/29 07:07:36;;;;;;;2.28;1.77;;;;;;;17.68;72.28;99265.66;4905886;28;20055;-85
2023/08/29 07:10:03;;;;;;;2.65;1.80;;;;;;;17.68;71.67;99254.06;4941754;28;20110;-88
2023/08/29 07:12:31;;;;;;;4.95;2.15;;;;;;;17.69;71.84;99266.50;4918823;28;20949;-88
2023/08/29 07:14:58;;;;;;;3.47;1.60;;;;;;;17.70;71.47;99273.50;4926788;28;20069;-88
2023/08/29 07:17:25;;;;;;;2.92;1.80;;;;;;;17.70;71.76;99273.50;4906991;28;20496;-88
2023/08/29 07:19:52;;;;;;;3.30;1.95;;;;;;;17.71;71.80;99275.19;4911712;28;20539;-88
2023/08/29 07:22:19;;;;;;;3.25;1.95;;;;;;;17.72;72.02;99279.53;4923676;28;20047;-89
2023/08/29 07:24:53;;;;;;;4.60;1.67;;;;;;;17.71;71.88;99272.50;4912579;28;20074;-88
2023/08/29 07:27:20;;;;;;;3.05;1.80;;;;;;;17.72;72.00;99272.28;4921520;28;20411;-88
2023/08/29 07:29:47;;;;;;;2.17;1.77;;;;;;;17.73;72.00;99273.97;4928976;28;20052;-88
2023/08/29 07:32:14;;;;;;;4.38;1.70;;;;;;;17.75;71.81;99290.69;4906259;28;20072;-89
2023/08/29 07:34:41;;;;;;;2.47;1.75;;;;;;;17.75;71.86;99285.31;4924148;29;20510;-88
2023/08/29 07:37:08;;;;;;;3.95;1.98;;;;;;;17.74;72.01;99280.97;4908195;29;20043;-88
2023/08/29 07:39:34;;;;;;;4.97;2.05;;;;;;;17.74;71.93;99280.97;4907925;28;20047;-88
2023/08/29 07:42:02;;;;;;;2.72;1.95;;;;;;;17.75;72.22;99287.19;4915724;28;20372;-88
2023/08/29 07:44:30;;;;;;;2.22;1.80;;;;;;;17.76;72.01;99289.69;4895773;28;20051;-88
2023/08/29 07:46:57;;;;;;;3.35;1.90;;;;;;;17.78;72.14;99294.84;4922960;28;20072;-88
2023/08/29 07:49:39;;;;;;;3.22;1.98;;;;;;;17.79;72.61;99291.13;4938959;28;20039;-89
2023/08/29 07:52:06;;;;;;;3.08;1.48;;;;;;;17.82;72.58;99293.47;4937547;28;20139;-89
2023/08/29 07:54:33;;;;;;;3.05;2.05;;;;;;;17.85;72.30;99302.97;4933367;28;20073;-85
2023/08/29 07:56:59;;;;;;;4.28;2.03;;;;;;;17.88;72.29;99307.97;4941576;28;20510;-89
2023/08/29 07:59:26;;;;;;;2.97;2.00;;;;;;;17.89;72.01;99307.78;4940455;28;20734;-89
2023/08/29 08:01:53;;;;;;;3.05;1.80;;;;;;;17.91;72.05;99307.56;4929934;28;20043;-88
2023/08/29 08:04:21;;;;;;;4.03;1.80;;;;;;;17.94;72.27;99302.66;4885940;28;21049;-88
2023/08/29 08:06:47;;;;;;;4.68;1.85;;;;;;;17.96;72.13;99305.97;4929196;28;20523;-89
2023/08/29 08:09:15;;;;;;;2.58;2.00;;;;;;;17.98;71.82;99311.94;4884715;28;20031;-88
2023/08/29 08:11:42;;;;;;;3.20;1.85;;;;;;;18.00;71.87;99311.75;4913162;28;20042;-88
2023/08/29 08:14:09;;;;;;;3.20;1.98;;;;;;;18.00;72.20;99304.53;4926666;28;20446;-88
2023/08/29 08:16:36;;;;;;;3.28;1.98;;;;;;;18.03;72.51;99305.16;4953645;28;20050;-89
2023/08/29 08:19:04;;;;;;;2.45;2.03;;;;;;;18.05;72.60;99312.00;4941694;28;20147;-88
2023/08/29 08:21:30;;;;;;;3.65;1.90;;;;;;;18.07;72.35;99311.81;4925041;28;20419;-88
2023/08/29 08:23:57;;;;;;;2.22;2.00;;;;;;;18.07;72.54;99315.34;4924243;28;20882;-88
2023/08/29 08:26:24;;;;;;;3.42;1.77;;;;;;;18.08;72.95;99318.84;4908447;28;20053;-88
2023/08/29 08:28:53;;;;;;;3.97;2.08;;;;;;;18.08;73.09;99316.97;4952528;28;20095;-88
2023/08/29 08:31:20;;;;;;;3.22;2.05;;;;;;;18.08;73.43;99311.59;4923090;28;20047;-87
2023/08/29 08:33:47;;;;;;;4.30;2.05;;;;;;;18.07;73.26;99314.50;4920260;28;20047;-88
2023/08/29 08:36:14;;;;;;;4.45;2.20;;;;;;;18.06;73.42;99313.66;4932490;28;20123;-88
2023/08/29 08:38:41;;;;;;;2.95;1.98;;;;;;;18.06;73.42;99316.34;4924232;28;20050;-85
2023/08/29 08:41:10;;;;;;;2.85;2.10;;;;;;;18.04;73.81;99323.78;4912903;29;20047;-88
2023/08/29 08:43:38;;;;;;;3.90;2.13;;;;;;;18.07;73.54;99323.38;4909484;28;20047;-88
2023/08/29 08:46:06;;;;;;;4.60;2.25;;;;;;;18.06;73.85;99331.63;4926611;28;20123;-87
2023/08/29 08:48:33;;;;;;;2.35;2.13;;;;;;;18.08;74.15;99333.09;4893488;28;20051;-86
2023/08/29 08:51:00;;;;;;;2.40;2.03;;;;;;;18.07;74.36;99334.13;4889935;29;20048;-87
2023/08/29 08:53:27;;;;;;;2.60;2.22;;;;;;;18.08;74.66;99335.78;4920955;28;20117;-88
2023/08/29 08:55:54;;;;;;;4.00;2.70;;;;;;;18.10;74.57;99340.97;4939845;28;20039;-87
2023/08/29 08:58:21;;;;;;;2.40;1.90;;;;;;;18.09;74.89;99340.16;4926777;28;20113;-88
2023/08/29 09:00:48;;;;;;;2.45;2.22;;;;;;;18.09;74.74;99341.97;4895767;28;20047;-87
2023/08/29 09:03:15;;;;;;;3.58;2.10;;;;;;;18.09;74.71;99347.34;4948854;28;20126;-88
2023/08/29 09:05:42;;;;;;;2.67;2.47;;;;;;;18.10;74.67;99340.97;4940006;28;20047;-87
2023/08/29 09:08:09;;;;;;;3.90;2.45;;;;;;;18.11;74.94;99343.44;4939885;28;20052;-85
2023/08/29 09:10:40;;;;;;;2.40;2.03;;;;;;;18.12;75.12;99338.94;4894513;28;20230;-86
2023/08/29 09:13:14;;;;;;;3.55;1.83;;;;;;;18.11;75.70;99339.94;4919288;28;20130;-85
2023/08/29 09:15:41;;;;;;;2.70;2.10;;;;;;;18.13;75.68;99332.50;4926166;28;20483;-83
2023/08/29 09:18:13;;;;;;;3.78;2.22;;;;;;;18.14;75.66;99335.00;4919106;28;20500;-84
2023/08/29 09:20:42;;;;;;;2.50;2.30;;;;;;;18.14;75.79;99328.78;4909759;29;20059;-84
2023/08/29 09:23:23;;;;;;;2.35;2.03;;;;;;;18.07;76.08;99334.13;4897131;28;20048;-83
2023/08/29 09:25:58;;;;;;;3.30;2.40;;;;;;;18.08;75.66;99329.59;4933207;28;21854;-83
2023/08/29 09:28:29;;;;;;;4.22;2.10;;;;;;;18.09;75.72;99336.59;4932369;28;20061;-83
2023/08/29 09:31:07;;;;;;;4.63;2.28;;;;;;;18.05;75.46;99336.19;4907066;29;20047;-84
2023/08/29 09:33:34;;;;;;;2.30;2.03;;;;;;;18.06;75.17;99332.47;4950700;28;20051;-85
2023/08/29 09:36:02;;;;;;;3.20;1.92;;;;;;;18.07;75.06;99336.81;4916976;28;20061;-85
2023/08/29 09:38:30;;;;;;;3.70;2.20;;;;;;;18.07;75.90;99327.94;4922081;28;20047;-85
2023/08/29 09:40:57;;;;;;;4.15;2.08;;;;;;;18.05;76.37;99338.88;4949203;28;20044;-84
2023/08/29 09:43:26;;;;;;;3.53;2.20;;;;;;;18.07;76.80;99328.75;4933883;28;20138;-84
2023/08/29 09:45:54;;;;;;;2.15;2.03;;;;;;;18.10;76.99;99332.91;4934618;28;20040;-85
2023/08/29 09:48:22;;;;;;;3.33;2.08;;;;;;;18.13;77.36;99336.03;4926803;28;20466;-84
2023/08/29 09:50:50;;;;;;;6.18;2.53;;;;;;;18.17;77.39;99336.47;4915957;28;20123;-87
2023/08/29 09:53:19;;;;;;;2.47;2.00;;;;;;;18.22;77.33;99344.78;4931344;28;20047;-87
2023/08/29 09:55:52;;;;;;;4.53;2.33;;;;;;;18.27;78.20;99350.41;4915663;29;20445;-88
2023/08/29 09:58:21;;;;;;;3.25;2.22;;;;;;;18.29;78.55;99345.63;4913540;28;20099;-84
2023/08/29 10:00:51;;;;;;;2.97;2.22;;;;;;;18.34;78.76;99340.50;4926578;28;20126;-84
2023/08/29 10:03:18;;;;;;;2.85;2.65;;;;;;;18.38;79.02;99347.13;4955945;28;20151;-84
2023/08/29 10:05:45;;;;;;;2.15;2.05;;;;;;;18.42;79.16;99342.22;4924758;28;20043;-83
2023/08/29 10:08:18;;;;;;;2.55;2.15;;;;;;;18.42;78.72;99336.84;4926059;28;20040;-88
2023/08/29 10:10:45;;;;;;;;;;;;;;;18.33;79.35;99338.00;4931884;28;20054;-87
2023/08/29 10:13:12;;;;;;;4.78;2.30;;;;;;;18.46;78.07;99331.88;4917845;28;19945;-89
2023/08/29 10:15:41;;;;;;;2.22;2.05;;;;;;;18.50;78.36;99330.47;4927748;28;20480;-86
2023/08/29 10:18:10;;;;;;;2.75;2.17;;;;;;;18.54;78.36;99337.91;4913296;28;20051;-88
2023/08/29 10:20:37;;;;;;;2.83;2.10;;;;;;;18.56;76.59;99335.03;4931056;28;20471;-87
2023/08/29 10:23:06;;;;;;;3.03;2.30;;;;;;;18.53;76.07;99335.44;4954426;28;20407;-88
2023/08/29 10:25:35;;;;;;;4.07;2.40;;;;;;;18.54;75.86;99334.41;4953379;28;20051;-87
2023/08/29 10:28:02;;;;;;;6.18;2.42;;;;;;;18.52;75.78;99329.22;4934033;28;20387;-88
2023/08/29 10:30:30;;;;;;;3.15;2.60;;;;;;;18.51;76.32;99330.25;4944467;28;20126;-87
2023/08/29 10:32:58;;;;;;;2.65;1.50;;;;;;;18.49;76.25;99326.91;4918212;28;20466;-87
2023/08/29 10:35:30;;;;;;;2.90;2.10;;;;;;;18.46;76.53;99323.81;4943489;28;20062;-85
2023/08/29 10:38:00;;;;;;;3.33;1.90;;;;;;;18.43;76.69;99322.34;4928616;28;20046;-85
2023/08/29 10:40:36;;;;;;;4.05;2.00;;;;;;;18.38;77.53;99335.56;4913518;28;20134;-84
2023/08/29 10:43:19;;;;;;;2.75;2.25;;;;;;;18.33;78.25;99341.53;4918427;28;20048;-84
2023/08/29 10:45:49;;;;;;;2.70;2.20;;;;;;;18.33;78.66;99338.00;4950478;28;20059;-85
2023/08/29 10:48:42;;;;;;;3.47;2.53;;;;;;;18.21;81.10;99343.94;4925581;28;20051;-83
2023/08/29 10:51:14;;;;;;;9.48;3.72;;;;;;;18.23;81.06;99335.69;4929520;28;20055;-82
2023/08/29 10:53:45;;;;;;;6.78;3.67;;;;;;;18.20;81.85;99331.53;4935988;28;20059;-81
2023/08/29 10:56:13;;;;;;;8.45;4.15;;;;;;;18.15;83.34;99336.66;4914343;28;20055;-81
2023/08/29 10:58:43;;;;;;;7.40;3.90;;;;;;;18.11;83.94;99337.25;4922348;28;20054;-81
2023/08/29 11:01:26;;;;;;;9.25;3.85;;;;;;;18.04;86.80;99339.06;4927024;28;20039;-83
2023/08/29 11:03:59;;;;;;;9.48;3.60;;;;;;;18.05;85.38;99341.56;4923240;29;20049;-82
2023/08/29 11:06:49;;;;;;;4.60;2.60;;;;;;;17.97;85.18;99323.72;4955953;28;20098;-83
2023/08/29 11:09:20;;;;;;;4.88;3.10;;;;;;;18.03;84.01;99321.28;4913778;28;20450;-83
2023/08/29 11:12:07;;;;;;;4.85;3.03;;;;;;;17.95;86.03;99322.28;4925670;28;20579;-83
2023/08/29 11:14:53;;;;;;;6.28;2.80;;;;;;;17.90;85.18;99330.91;4911324;28;20050;-83
2023/08/29 11:17:23;;;;;;;4.53;2.10;;;;;;;17.91;84.14;99331.72;4918005;28;20130;-83
2023/08/29 11:19:54;;;;;;;4.40;2.03;;;;;;;17.91;83.94;99329.91;4893473;28;20047;-83
2023/08/29 11:22:31;;;;;;;2.60;2.03;;;;;;;17.93;84.68;99327.00;4942998;28;20566;-84
2023/08/29 11:24:58;;;;;;;3.28;2.25;;;;;;;17.95;85.73;99323.09;4898329;28;20142;-84
2023/08/29 11:27:28;;;;;;;3.17;2.10;;;;;;;18.01;86.11;99318.78;4940949;28;20055;-83
2023/08/29 11:29:55;;;;;;;2.47;1.75;;;;;;;18.04;86.23;99331.00;4909530;28;20052;-83
2023/08/29 11:32:37;;;;;;;2.00;1.90;;;;;;;18.06;86.54;99324.41;4922158;28;20394;-84
2023/08/29 11:35:04;;;;;;;3.33;1.65;;;;;;;18.09;86.44;99312.44;4949945;28;20052;-83
2023/08/29 11:37:31;;;;;;;5.53;2.03;;;;;;;18.14;86.66;99312.66;4913256;28;20126;-82
2023/08/29 11:39:58;;;;;;;3.40;2.00;;;;;;;18.16;86.73;99305.25;4928926;28;20056;-82